createdAt,value
2019-03-17T00:02:31.051Z,1.07
2019-03-17T00:05:18.907Z,1.10
2019-03-17T00:08:06.746Z,0.90
2019-03-17T00:10:54.688Z,1.10
2019-03-17T00:16:11.064Z,1.00
2019-03-17T00:18:59.143Z,1.00
2019-03-17T00:21:29.564Z,1.30
2019-03-17T00:27:05.499Z,1.10
2019-03-17T00:29:53.399Z,1.10
2019-03-17T00:32:41.363Z,1.10
2019-03-17T00:35:10.074Z,0.90
2019-03-17T00:37:58.000Z,1.17
2019-03-17T00:40:45.857Z,0.97
2019-03-17T00:43:33.750Z,1.00
2019-03-17T00:46:21.660Z,1.20
2019-03-17T00:49:09.478Z,1.10
2019-03-17T00:51:57.288Z,1.20
2019-03-17T00:54:25.976Z,1.30
2019-03-17T00:56:54.608Z,1.00
2019-03-17T00:59:42.544Z,1.53
2019-03-17T01:02:30.442Z,1.30
2019-03-17T01:05:18.616Z,1.20
2019-03-17T01:08:06.469Z,1.30
2019-03-17T01:10:54.329Z,1.27
2019-03-17T01:13:42.194Z,1.00
2019-03-17T01:16:30.052Z,1.20
2019-03-17T01:19:17.861Z,1.20
2019-03-17T01:21:46.715Z,1.23
2019-03-17T01:24:15.369Z,1.43
2019-03-17T01:29:37.873Z,1.30
2019-03-17T01:32:25.710Z,1.13
2019-03-17T01:34:54.329Z,1.53
2019-03-17T01:37:42.630Z,1.30
2019-03-17T01:40:51.062Z,1.07
2019-03-17T01:43:38.954Z,1.67
2019-03-17T01:46:26.885Z,1.30
2019-03-17T01:49:14.654Z,1.43
2019-03-17T01:52:02.509Z,1.23
2019-03-17T01:54:50.353Z,1.20
2019-03-17T01:57:38.419Z,1.50
2019-03-17T02:03:33.195Z,1.20
2019-03-17T02:06:21.362Z,1.00
2019-03-17T02:09:09.200Z,1.10
2019-03-17T02:11:57.283Z,1.23
2019-03-17T02:14:45.573Z,1.30
2019-03-17T02:17:33.413Z,1.00
2019-03-17T02:20:02.041Z,1.33
2019-03-17T02:22:49.802Z,1.37
2019-03-17T02:25:31.269Z,1.00
2019-03-17T02:27:59.919Z,1.00
2019-03-17T02:30:47.740Z,1.30
2019-03-17T02:36:42.519Z,1.20
2019-03-17T02:39:30.414Z,1.13
2019-03-17T02:42:18.456Z,1.03
2019-03-17T02:47:53.873Z,1.23
2019-03-17T02:53:48.641Z,1.00
2019-03-17T02:56:36.480Z,0.70
2019-03-17T02:59:24.293Z,0.97
2019-03-17T03:04:59.666Z,0.97
2019-03-17T03:07:47.898Z,1.17
2019-03-17T03:10:35.737Z,0.97
2019-03-17T03:13:04.384Z,0.90
2019-03-17T03:15:52.257Z,1.00
2019-03-17T03:18:40.211Z,1.10
2019-03-17T03:21:28.126Z,1.07
2019-03-17T03:24:16.054Z,1.17
2019-03-17T03:27:03.884Z,1.17
2019-03-17T03:29:52.158Z,0.80
2019-03-17T03:35:46.951Z,0.90
2019-03-17T03:41:22.500Z,1.40
2019-03-17T03:43:51.400Z,1.07
2019-03-17T03:49:26.809Z,1.20
2019-03-17T03:52:14.960Z,1.20
2019-03-17T03:55:02.925Z,1.13
2019-03-17T03:57:31.562Z,1.23
2019-03-17T04:00:00.506Z,1.40
2019-03-17T04:05:23.594Z,1.30
2019-03-17T04:08:11.432Z,1.30
2019-03-17T04:13:33.256Z,1.30
2019-03-17T04:16:01.963Z,1.30
2019-03-17T04:18:49.977Z,1.23
2019-03-17T04:21:37.833Z,1.53
2019-03-17T04:24:06.479Z,1.50
2019-03-17T04:26:54.424Z,1.50
2019-03-17T04:29:42.194Z,1.60
2019-03-17T04:32:30.118Z,1.97
2019-03-17T04:35:17.967Z,1.37
2019-03-17T04:37:46.603Z,1.60
2019-03-17T04:43:42.726Z,1.40
2019-03-17T04:46:30.729Z,1.07
2019-03-17T04:49:18.483Z,0.80
2019-03-17T04:52:06.307Z,0.97
2019-03-17T04:57:28.038Z,1.10
2019-03-17T05:00:15.897Z,0.97
2019-03-17T05:02:44.590Z,0.90
2019-03-17T05:05:13.370Z,0.97
2019-03-17T05:07:42.083Z,0.97
2019-03-17T05:10:31.436Z,0.73
2019-03-17T05:13:19.401Z,1.10
2019-03-17T05:16:07.284Z,1.00
2019-03-17T05:18:55.362Z,0.90
2019-03-17T05:24:11.700Z,1.10
2019-03-17T05:26:40.389Z,1.00
2019-03-17T05:29:28.347Z,1.10
2019-03-17T05:31:57.062Z,0.80
2019-03-17T05:34:44.763Z,0.90
2019-03-17T05:37:13.441Z,0.80
2019-03-17T05:39:42.081Z,0.90
2019-03-17T05:42:10.742Z,0.90
2019-03-17T05:44:39.538Z,0.70
2019-03-17T05:47:27.351Z,0.60
2019-03-17T05:50:15.182Z,0.90
2019-03-17T05:52:43.859Z,1.20
2019-03-17T05:55:12.511Z,1.13
2019-03-17T05:58:00.366Z,0.70
2019-03-17T06:00:29.008Z,1.00
2019-03-17T06:02:57.707Z,0.97
2019-03-17T06:05:45.624Z,1.10
2019-03-17T06:08:14.308Z,0.93
2019-03-17T06:11:02.158Z,1.00
2019-03-17T06:13:30.843Z,0.77
2019-03-17T06:15:59.744Z,0.90
2019-03-17T06:18:47.528Z,0.80
2019-03-17T06:21:35.401Z,0.80
2019-03-17T06:24:03.995Z,0.70
2019-03-17T06:26:51.824Z,0.60
2019-03-17T06:30:00.394Z,0.60
2019-03-17T06:32:28.996Z,0.87
2019-03-17T06:34:57.601Z,0.70
2019-03-17T06:37:31.058Z,0.97
2019-03-17T06:39:56.768Z,0.70
2019-03-17T06:42:25.306Z,0.70
2019-03-17T06:44:53.924Z,0.93
2019-03-17T06:47:22.561Z,0.75
2019-03-17T06:49:51.267Z,0.90
2019-03-17T06:52:39.129Z,1.07
2019-03-17T06:55:47.592Z,1.00
2019-03-17T06:58:16.177Z,0.80
2019-03-17T07:01:04.114Z,0.90
2019-03-17T07:03:32.770Z,0.93
2019-03-17T07:06:20.606Z,0.80
2019-03-17T07:08:49.265Z,1.12
2019-03-17T07:11:17.954Z,1.07
2019-03-17T07:13:46.684Z,1.10
2019-03-17T07:16:15.380Z,1.10
2019-03-17T07:18:43.969Z,0.90
2019-03-17T07:21:12.650Z,0.80
2019-03-17T07:23:41.287Z,0.93
2019-03-17T07:26:10.007Z,1.17
2019-03-17T07:28:38.649Z,1.15
2019-03-17T07:31:26.481Z,0.90
2019-03-17T07:34:14.438Z,0.90
2019-03-17T07:36:43.151Z,1.02
2019-03-17T07:39:12.434Z,1.12
2019-03-17T07:41:42.141Z,1.13
2019-03-17T07:44:29.965Z,1.10
2019-03-17T07:47:17.956Z,1.10
2019-03-17T07:49:46.670Z,0.80
2019-03-17T07:52:15.324Z,1.00
2019-03-17T07:55:03.282Z,1.00
2019-03-17T07:57:51.144Z,1.02
2019-03-17T08:00:39.032Z,1.10
2019-03-17T08:03:27.010Z,0.95
2019-03-17T08:06:14.887Z,1.00
2019-03-17T08:09:02.717Z,1.10
2019-03-17T08:11:50.587Z,0.80
2019-03-17T08:14:38.424Z,0.80
2019-03-17T08:17:07.109Z,0.90
2019-03-17T08:19:54.949Z,0.65
2019-03-17T08:22:23.614Z,0.90
2019-03-17T08:24:52.383Z,1.17
2019-03-17T08:27:40.236Z,0.90
2019-03-17T08:30:28.155Z,1.00
2019-03-17T08:32:56.843Z,0.85
2019-03-17T08:35:44.791Z,0.90
2019-03-17T08:38:32.640Z,0.90
2019-03-17T08:41:01.347Z,1.10
2019-03-17T08:43:54.112Z,0.85
2019-03-17T08:46:19.653Z,0.93
2019-03-17T08:48:48.362Z,0.85
2019-03-17T08:51:16.908Z,0.90
2019-03-17T08:53:45.636Z,0.93
2019-03-17T08:56:14.326Z,1.00
2019-03-17T08:58:43.032Z,1.20
2019-03-17T09:01:30.866Z,1.00
2019-03-17T09:04:18.872Z,1.30
2019-03-17T09:07:06.598Z,1.20
2019-03-17T09:12:28.749Z,1.00
2019-03-17T09:14:57.451Z,1.10
2019-03-17T09:17:45.298Z,0.95
2019-03-17T09:23:26.144Z,0.80
2019-03-17T09:26:14.065Z,1.02
2019-03-17T09:29:01.824Z,0.90
2019-03-17T09:31:49.720Z,1.00
2019-03-17T09:34:18.376Z,0.90
2019-03-17T09:36:47.082Z,0.93
2019-03-17T09:39:34.955Z,1.10
2019-03-17T09:42:22.806Z,0.95
2019-03-17T09:44:51.457Z,1.22
2019-03-17T09:47:20.171Z,0.95
2019-03-17T09:49:48.809Z,1.02
2019-03-17T09:52:17.679Z,1.10
2019-03-17T09:55:05.597Z,1.10
2019-03-17T09:57:53.564Z,1.12
2019-03-17T10:00:42.930Z,1.10
2019-03-17T10:03:30.896Z,1.37
2019-03-17T10:06:18.687Z,1.20
2019-03-17T10:09:06.608Z,1.12
2019-03-17T10:11:54.458Z,1.55
2019-03-17T10:14:42.379Z,1.40
2019-03-17T10:17:11.104Z,1.50
2019-03-17T10:19:58.799Z,1.37
2019-03-17T10:22:46.573Z,1.53
2019-03-17T10:25:34.325Z,1.60
2019-03-17T10:28:22.211Z,1.23
2019-03-17T10:31:10.123Z,1.57
2019-03-17T10:33:58.065Z,1.45
2019-03-17T10:36:45.926Z,1.80
2019-03-17T10:39:33.810Z,1.60
2019-03-17T10:42:21.701Z,1.30
2019-03-17T10:45:09.587Z,1.70
2019-03-17T10:47:38.376Z,1.65
2019-03-17T10:50:26.365Z,1.60
2019-03-17T10:53:14.227Z,1.40
2019-03-17T10:55:43.005Z,1.40
2019-03-17T10:58:30.847Z,1.70
2019-03-17T11:01:18.652Z,1.55
2019-03-17T11:04:06.507Z,1.77
2019-03-17T11:06:35.209Z,1.60
2019-03-17T11:12:12.128Z,1.70
2019-03-17T11:14:40.795Z,1.55
2019-03-17T11:17:09.506Z,1.65
2019-03-17T11:19:57.432Z,1.87
2019-03-17T11:22:26.074Z,1.62
2019-03-17T11:25:14.022Z,2.12
2019-03-17T11:28:01.842Z,1.80
2019-03-17T11:30:49.662Z,1.98
2019-03-17T11:33:37.654Z,1.62
2019-03-17T11:36:06.366Z,2.40
2019-03-17T11:38:54.046Z,1.75
2019-03-17T11:41:41.963Z,1.77
2019-03-17T11:44:29.941Z,1.80
2019-03-17T11:46:58.618Z,1.80
2019-03-17T11:49:46.621Z,1.97
2019-03-17T11:52:15.438Z,1.50
2019-03-17T11:55:03.409Z,2.20
2019-03-17T11:57:32.042Z,2.20
2019-03-17T12:00:00.775Z,1.87
2019-03-17T12:02:48.681Z,2.08
2019-03-17T12:05:17.471Z,2.08
2019-03-17T12:07:46.236Z,2.02
2019-03-17T12:10:34.189Z,1.90
2019-03-17T12:13:02.958Z,1.82
2019-03-17T12:16:11.415Z,1.70
2019-03-17T12:18:59.294Z,1.87
2019-03-17T12:21:47.174Z,1.65
2019-03-17T12:24:35.264Z,2.10
2019-03-17T12:27:03.975Z,2.00
2019-03-17T12:32:39.476Z,1.90
2019-03-17T12:35:08.266Z,1.90
2019-03-17T12:37:37.018Z,2.10
2019-03-17T12:43:14.250Z,2.10
2019-03-17T12:48:50.128Z,1.83
2019-03-17T12:51:38.101Z,1.90
2019-03-17T12:54:26.115Z,1.75
2019-03-17T12:57:14.435Z,1.82
2019-03-17T12:59:43.149Z,1.55
2019-03-17T13:02:31.076Z,2.47
2019-03-17T13:14:12.772Z,2.15
2019-03-17T13:17:00.752Z,2.10
2019-03-17T13:19:48.868Z,1.95
2019-03-17T13:22:36.893Z,2.08
2019-03-17T13:25:25.081Z,2.10
2019-03-17T13:28:13.044Z,2.10
2019-03-17T13:31:01.189Z,1.40
2019-03-17T13:42:20.584Z,2.13
2019-03-17T13:45:08.483Z,1.20
2019-03-17T13:50:44.413Z,2.00
2019-03-17T13:53:32.448Z,2.30
2019-03-17T13:56:20.663Z,1.90
2019-03-17T13:58:49.538Z,2.10
2019-03-17T14:01:56.793Z,1.80
2019-03-17T14:04:25.682Z,2.00
2019-03-17T14:07:13.672Z,2.20
2019-03-17T14:09:42.571Z,1.67
2019-03-17T14:12:30.719Z,2.20
2019-03-17T14:15:18.808Z,1.47
2019-03-17T14:18:07.101Z,1.77
2019-03-17T14:20:55.103Z,1.00
2019-03-17T14:23:24.033Z,0.80
2019-03-17T14:26:12.168Z,0.50
2019-03-17T14:29:00.427Z,0.60
2019-03-17T14:31:48.659Z,0.83
2019-03-17T14:34:36.914Z,0.80
2019-03-17T14:37:26.705Z,1.37
2019-03-17T14:42:50.782Z,1.00
2019-03-17T14:45:39.022Z,0.73
2019-03-17T14:48:27.257Z,0.70
2019-03-17T14:51:15.338Z,0.73
2019-03-17T14:57:10.444Z,0.60
2019-03-17T15:03:05.554Z,0.47
2019-03-17T15:08:22.100Z,0.67
2019-03-17T15:14:17.197Z,0.70
2019-03-17T15:17:05.334Z,0.60
2019-03-17T15:23:00.431Z,0.60
2019-03-17T15:28:55.595Z,0.93
2019-03-17T15:32:04.266Z,0.57
2019-03-17T15:34:52.449Z,0.60
2019-03-17T15:37:40.702Z,0.77
2019-03-17T15:43:02.641Z,0.77
2019-03-17T15:45:50.789Z,1.03
2019-03-17T15:48:19.675Z,1.00
2019-03-17T15:51:28.297Z,0.90
2019-03-17T15:54:16.444Z,0.80
2019-03-17T15:59:59.791Z,0.70
2019-03-17T16:02:47.968Z,0.90
2019-03-17T16:05:36.278Z,1.20
2019-03-17T16:08:24.554Z,0.80
2019-03-17T16:14:00.487Z,0.90
2019-03-17T16:17:09.158Z,1.10
2019-03-17T16:19:38.130Z,0.90
2019-03-17T16:22:08.745Z,2.20
2019-03-17T16:24:57.140Z,1.40
2019-03-17T16:27:26.083Z,0.60
2019-03-17T16:30:33.510Z,0.80
2019-03-17T16:33:22.037Z,0.70
2019-03-17T16:36:10.172Z,0.70
2019-03-17T16:45:00.430Z,0.77
2019-03-17T16:47:48.851Z,0.60
2019-03-17T16:53:45.608Z,0.77
2019-03-17T16:56:33.804Z,1.13
2019-03-17T16:59:22.007Z,1.17
2019-03-17T17:02:30.692Z,0.97
2019-03-17T17:08:28.320Z,1.40
2019-03-17T17:14:06.428Z,1.53
2019-03-17T17:20:03.296Z,1.57
2019-03-17T17:28:41.855Z,1.33
2019-03-17T17:31:30.107Z,1.37
2019-03-17T17:39:59.169Z,1.50
2019-03-17T17:42:28.128Z,1.80
2019-03-17T17:45:36.882Z,1.43
2019-03-17T17:51:32.071Z,1.80
2019-03-17T17:57:29.002Z,1.60
2019-03-17T18:00:37.640Z,1.80
2019-03-17T18:03:25.820Z,2.23
2019-03-17T18:06:14.267Z,2.37
2019-03-17T18:09:02.700Z,1.67
2019-03-17T18:11:50.853Z,1.90
2019-03-17T18:14:39.104Z,1.40
2019-03-17T18:17:27.342Z,1.83
2019-03-17T18:20:15.577Z,1.50
2019-03-17T18:23:03.828Z,1.43
2019-03-17T18:25:52.079Z,1.33
2019-03-17T18:28:40.369Z,1.30
2019-03-17T18:31:28.422Z,1.17
2019-03-17T18:34:16.600Z,2.20
2019-03-17T18:37:04.845Z,2.30
2019-03-17T18:43:07.134Z,2.00
2019-03-17T18:46:17.712Z,2.13
2019-03-17T18:52:00.295Z,1.67
2019-03-17T18:57:57.343Z,3.03
2019-03-17T19:00:45.808Z,1.70
2019-03-17T19:03:34.353Z,1.67
2019-03-17T19:12:14.994Z,1.80
2019-03-17T19:15:03.539Z,1.40
2019-03-17T19:17:51.926Z,1.20
2019-03-17T19:23:47.135Z,1.93
2019-03-17T19:26:35.380Z,1.10
2019-03-17T19:34:44.341Z,1.00
2019-03-17T19:37:34.528Z,1.30
2019-03-17T19:40:41.844Z,1.10
2019-03-17T19:52:25.093Z,1.00
2019-03-17T19:55:13.357Z,1.37
2019-03-17T19:58:03.193Z,1.03
2019-03-17T20:00:32.696Z,1.17
2019-03-17T20:09:30.190Z,1.10
2019-03-17T20:18:41.542Z,1.60
2019-03-17T20:21:50.589Z,1.27
2019-03-17T20:27:45.479Z,1.23
2019-03-17T20:42:36.110Z,2.20
2019-03-17T20:45:44.889Z,1.70
2019-03-17T20:48:33.592Z,1.80
2019-03-17T20:51:21.836Z,1.60
2019-03-17T20:54:32.196Z,1.40
2019-03-17T20:57:20.425Z,1.70
2019-03-17T21:00:08.678Z,2.00
2019-03-17T21:08:51.691Z,2.30
2019-03-17T21:14:34.617Z,1.80
2019-03-17T21:19:57.125Z,2.40
2019-03-17T21:22:45.013Z,2.43
2019-03-17T21:25:33.306Z,2.60
2019-03-17T21:31:20.558Z,1.87
2019-03-17T21:34:08.802Z,1.70
2019-03-17T21:40:06.577Z,2.37
2019-03-17T21:42:54.714Z,1.97
2019-03-17T21:48:30.592Z,1.90
2019-03-17T21:51:18.756Z,2.20
2019-03-17T21:54:06.984Z,2.00
2019-03-17T21:56:55.015Z,1.43
2019-03-17T21:59:43.086Z,1.60
2019-03-17T22:02:31.098Z,2.27
2019-03-17T22:05:19.168Z,2.00
2019-03-17T22:08:27.903Z,1.60
2019-03-17T22:11:36.892Z,1.77
2019-03-17T22:14:25.122Z,1.97
2019-03-17T22:25:58.589Z,1.50
2019-03-17T22:28:46.476Z,0.93
2019-03-17T22:31:34.319Z,0.90
2019-03-17T22:34:22.253Z,1.10
2019-03-17T22:37:10.295Z,1.10
2019-03-17T22:39:38.817Z,1.13
2019-03-17T22:42:27.049Z,0.77
2019-03-17T22:44:57.396Z,1.40
2019-03-17T22:47:45.679Z,0.83
2019-03-17T22:50:35.456Z,0.87
2019-03-17T22:53:23.354Z,0.90
2019-03-17T22:56:11.928Z,1.10
2019-03-17T22:59:20.357Z,0.82
2019-03-17T23:05:15.199Z,1.27
2019-03-17T23:08:23.642Z,2.60
2019-03-17T23:11:11.539Z,0.90
2019-03-17T23:13:59.403Z,1.13
2019-03-17T23:16:47.302Z,0.87
2019-03-17T23:19:35.182Z,1.10
2019-03-17T23:22:23.067Z,1.20
2019-03-17T23:25:10.902Z,1.40
2019-03-17T23:28:19.362Z,1.07
2019-03-17T23:31:07.223Z,1.23
2019-03-17T23:39:04.144Z,0.80
2019-03-17T23:41:34.408Z,1.40
2019-03-17T23:44:03.216Z,0.80
2019-03-17T23:46:52.870Z,1.00
2019-03-17T23:49:40.707Z,0.83
2019-03-17T23:52:28.970Z,1.00
2019-03-17T23:55:16.799Z,1.40
2019-03-17T23:58:04.676Z,1.37
